createdAt,value
2019-05-03T00:00:39.074Z,22.24
2019-05-03T00:01:49.388Z,22.28
2019-05-03T00:02:59.417Z,22.33
2019-05-03T00:04:09.306Z,22.27
2019-05-03T00:05:19.371Z,22.24
2019-05-03T00:06:29.136Z,22.27
2019-05-03T00:07:39.225Z,22.3
2019-05-03T00:08:49.224Z,22.27
2019-05-03T00:09:59.227Z,22.28
2019-05-03T00:11:10.027Z,22.28
2019-05-03T00:12:19.753Z,22.25
2019-05-03T00:13:29.120Z,22.3
2019-05-03T00:14:41.598Z,22.28
2019-05-03T00:15:52.178Z,22.22
2019-05-03T00:17:02.331Z,22.27
2019-05-03T00:18:11.779Z,22.25
2019-05-03T00:19:21.898Z,22.28
2019-05-03T00:20:32.608Z,22.27
2019-05-03T00:21:44.107Z,22.24
2019-05-03T00:22:54.802Z,22.28
2019-05-03T00:24:04.898Z,22.21
2019-05-03T00:25:15.313Z,22.28
2019-05-03T00:26:27.421Z,22.24
2019-05-03T00:27:39.384Z,22.2
2019-05-03T00:28:51.882Z,22.17
2019-05-03T00:30:02.779Z,22.21
2019-05-03T00:31:12.563Z,22.2
2019-05-03T00:32:24.210Z,22.22
2019-05-03T00:33:34.326Z,22.18
2019-05-03T00:34:46.436Z,22.24
2019-05-03T00:35:57.118Z,22.18
2019-05-03T00:37:07.232Z,22.2
2019-05-03T00:38:17.569Z,22.18
2019-05-03T00:39:29.161Z,22.15
2019-05-03T00:40:39.420Z,22.12
2019-05-03T00:41:49.681Z,22.18
2019-05-03T00:42:59.517Z,22.21
2019-05-03T00:44:11.470Z,22.25
2019-05-03T00:45:22.059Z,22.21
2019-05-03T00:46:32.710Z,22.2
2019-05-03T00:47:44.583Z,22.22
2019-05-03T00:48:54.693Z,22.21
2019-05-03T00:50:05.313Z,22.2
2019-05-03T00:51:16.940Z,22.22
2019-05-03T00:52:27.336Z,22.21
2019-05-03T00:53:36.642Z,22.18
2019-05-03T00:54:47.193Z,22.21
2019-05-03T00:55:57.640Z,22.24
2019-05-03T00:57:08.813Z,22.18
2019-05-03T00:58:19.236Z,22.24
2019-05-03T00:59:29.571Z,22.17
2019-05-03T01:00:41.638Z,22.14
2019-05-03T01:01:52.114Z,22.22
2019-05-03T01:03:02.130Z,22.25
2019-05-03T01:04:11.865Z,22.18
2019-05-03T01:05:22.656Z,22.24
2019-05-03T01:06:31.960Z,22.14
2019-05-03T01:07:42.220Z,22.17
2019-05-03T01:08:52.204Z,22.15
2019-05-03T01:10:02.599Z,22.09
2019-05-03T01:11:12.615Z,22.14
2019-05-03T01:12:24.108Z,22.09
2019-05-03T01:13:34.286Z,22.05
2019-05-03T01:14:44.608Z,22.05
2019-05-03T01:15:54.186Z,22.07
2019-05-03T01:17:05.099Z,22.06
2019-05-03T01:18:17.168Z,22.06
2019-05-03T01:19:28.783Z,22.03
2019-05-03T01:20:39.158Z,22.06
2019-05-03T01:21:51.497Z,22.09
2019-05-03T01:23:02.040Z,22.03
2019-05-03T01:24:12.273Z,22.07
2019-05-03T01:25:37.974Z,22.09
2019-05-03T01:26:47.890Z,22.1
2019-05-03T01:27:59.144Z,22.06
2019-05-03T01:29:08.819Z,22.14
2019-05-03T01:30:19.497Z,22.03
2019-05-03T01:31:29.517Z,22.1
2019-05-03T01:32:39.092Z,22.05
2019-05-03T01:33:51.333Z,22.03
2019-05-03T01:35:03.121Z,22.06
2019-05-03T01:36:14.493Z,22.06
2019-05-03T01:37:25.151Z,22.05
2019-05-03T01:38:36.459Z,22.09
2019-05-03T01:39:47.165Z,22.14
2019-05-03T01:40:57.431Z,22.06
2019-05-03T01:42:09.007Z,22.14
2019-05-03T01:43:18.848Z,22.02
2019-05-03T01:44:29.108Z,22.1
2019-05-03T01:45:39.555Z,22
2019-05-03T01:46:51.543Z,22.1
2019-05-03T01:48:02.007Z,22
2019-05-03T01:49:12.256Z,22
2019-05-03T01:50:22.843Z,22
2019-05-03T01:51:32.672Z,21.98
2019-05-03T01:52:44.129Z,22
2019-05-03T01:53:54.784Z,22.05
2019-05-03T01:55:05.837Z,22
2019-05-03T01:56:22.078Z,21.96
2019-05-03T01:57:32.426Z,22.05
2019-05-03T01:58:43.860Z,22.09
2019-05-03T01:59:54.571Z,21.96
2019-05-03T02:01:05.289Z,21.99
2019-05-03T02:02:15.016Z,21.96
2019-05-03T02:03:26.317Z,21.94
2019-05-03T02:04:37.527Z,21.98
2019-05-03T02:05:48.553Z,21.98
2019-05-03T02:06:59.192Z,22.05
2019-05-03T02:08:09.693Z,22
2019-05-03T02:09:21.615Z,21.96
2019-05-03T02:10:32.142Z,21.99
2019-05-03T02:11:42.262Z,21.96
2019-05-03T02:12:52.226Z,21.91
2019-05-03T02:14:04.115Z,21.98
2019-05-03T02:15:14.115Z,21.96
2019-05-03T02:16:24.341Z,21.96
2019-05-03T02:17:34.325Z,21.98
2019-05-03T02:18:44.644Z,22
2019-05-03T02:19:55.148Z,21.96
2019-05-03T02:21:07.267Z,22
2019-05-03T02:22:17.276Z,21.98
2019-05-03T02:23:27.510Z,22
2019-05-03T02:24:37.397Z,22.02
2019-05-03T02:26:03.025Z,21.96
2019-05-03T02:27:15.083Z,21.99
2019-05-03T02:28:24.578Z,21.96
2019-05-03T02:29:35.044Z,21.99
2019-05-03T02:30:46.459Z,21.98
2019-05-03T02:31:58.537Z,21.94
2019-05-03T02:33:13.336Z,21.96
2019-05-03T02:34:26.025Z,21.99
2019-05-03T02:35:38.371Z,22.03
2019-05-03T02:36:53.474Z,22
2019-05-03T02:38:06.158Z,21.99
2019-05-03T02:39:18.580Z,21.94
2019-05-03T02:40:30.078Z,21.99
2019-05-03T02:41:41.037Z,21.88
2019-05-03T02:43:05.422Z,21.99
2019-05-03T02:44:18.013Z,21.88
2019-05-03T02:45:30.698Z,22
2019-05-03T02:46:42.311Z,22.02
2019-05-03T02:47:55.147Z,21.94
2019-05-03T02:49:06.365Z,21.94
2019-05-03T02:50:18.794Z,21.94
2019-05-03T02:51:31.227Z,22.02
2019-05-03T02:52:45.543Z,21.94
2019-05-03T02:53:57.015Z,21.94
2019-05-03T02:55:08.584Z,22.02
2019-05-03T02:56:28.615Z,21.96
2019-05-03T02:57:40.810Z,21.98
2019-05-03T02:58:55.706Z,22.03
2019-05-03T03:00:07.527Z,21.92
2019-05-03T03:01:18.781Z,21.88
2019-05-03T03:02:31.484Z,22
2019-05-03T03:03:45.662Z,21.99
2019-05-03T03:04:56.296Z,22
2019-05-03T03:06:09.350Z,21.94
2019-05-03T03:07:20.785Z,21.99
2019-05-03T03:08:36.749Z,21.91
2019-05-03T03:09:47.742Z,21.94
2019-05-03T03:10:58.101Z,21.88
2019-05-03T03:12:10.808Z,21.91
2019-05-03T03:13:22.391Z,21.92
2019-05-03T03:14:32.881Z,21.88
2019-05-03T03:15:45.660Z,21.9
2019-05-03T03:16:55.904Z,21.98
2019-05-03T03:18:08.460Z,21.88
2019-05-03T03:19:20.598Z,21.88
2019-05-03T03:20:31.517Z,21.92
2019-05-03T03:21:46.343Z,21.91
2019-05-03T03:22:58.068Z,21.84
2019-05-03T03:24:10.869Z,21.9
2019-05-03T03:25:25.553Z,21.98
2019-05-03T03:26:49.682Z,21.9
2019-05-03T03:28:01.493Z,21.92
2019-05-03T03:29:12.192Z,21.9
2019-05-03T03:30:28.256Z,21.91
2019-05-03T03:31:47.871Z,21.91
2019-05-03T03:33:07.977Z,21.98
2019-05-03T03:34:27.854Z,21.92
2019-05-03T03:35:48.378Z,21.91
2019-05-03T03:37:15.548Z,21.91
2019-05-03T03:38:28.419Z,21.96
2019-05-03T03:39:41.181Z,21.91
2019-05-03T03:40:56.335Z,21.96
2019-05-03T03:42:10.761Z,21.98
2019-05-03T03:43:20.984Z,21.98
2019-05-03T03:44:36.003Z,21.92
2019-05-03T03:45:48.021Z,21.9
2019-05-03T03:47:00.624Z,21.82
2019-05-03T03:48:15.574Z,21.92
2019-05-03T03:49:26.148Z,21.86
2019-05-03T03:50:38.411Z,21.82
2019-05-03T03:51:50.699Z,21.9
2019-05-03T03:53:01.405Z,21.86
2019-05-03T03:54:15.462Z,21.88
2019-05-03T03:55:28.741Z,21.86
2019-05-03T03:57:04.461Z,21.86
2019-05-03T03:58:26.947Z,21.92
2019-05-03T03:59:38.875Z,21.9
2019-05-03T04:00:51.048Z,21.84
2019-05-03T04:02:05.692Z,21.79
2019-05-03T04:03:18.271Z,21.83
2019-05-03T04:04:31.401Z,21.9
2019-05-03T04:05:46.467Z,21.86
2019-05-03T04:07:02.704Z,21.84
2019-05-03T04:08:16.107Z,21.84
2019-05-03T04:09:28.092Z,21.84
2019-05-03T04:10:39.983Z,21.79
2019-05-03T04:11:51.711Z,21.83
2019-05-03T04:13:05.421Z,21.9
2019-05-03T04:14:16.079Z,21.82
2019-05-03T04:15:28.419Z,21.9
2019-05-03T04:16:40.890Z,21.83
2019-05-03T04:17:52.799Z,21.74
2019-05-03T04:19:05.715Z,21.9
2019-05-03T04:20:18.658Z,21.9
2019-05-03T04:21:31.023Z,21.9
2019-05-03T04:22:45.219Z,21.88
2019-05-03T04:23:58.051Z,21.88
2019-05-03T04:25:10.767Z,21.82
2019-05-03T04:26:27.442Z,21.72
2019-05-03T04:27:41.419Z,21.86
2019-05-03T04:28:52.613Z,21.84
2019-05-03T04:30:05.841Z,21.86
2019-05-03T04:31:17.775Z,21.8
2019-05-03T04:32:32.979Z,21.83
2019-05-03T04:33:45.016Z,21.83
2019-05-03T04:34:55.888Z,21.8
2019-05-03T04:36:07.899Z,21.82
2019-05-03T04:37:20.878Z,21.74
2019-05-03T04:38:35.386Z,21.74
2019-05-03T04:39:48.252Z,21.84
2019-05-03T04:41:00.983Z,21.84
2019-05-03T04:42:16.368Z,21.79
2019-05-03T04:43:28.983Z,21.75
2019-05-03T04:44:40.791Z,21.92
2019-05-03T04:45:55.443Z,21.8
2019-05-03T04:47:09.006Z,21.82
2019-05-03T04:48:20.847Z,21.83
2019-05-03T04:49:32.958Z,21.77
2019-05-03T04:50:45.624Z,21.75
2019-05-03T04:51:58.439Z,21.79
2019-05-03T04:53:10.943Z,21.75
2019-05-03T04:54:25.200Z,21.8
2019-05-03T04:55:38.653Z,21.79
2019-05-03T04:56:51.157Z,21.79
2019-05-03T04:58:04.754Z,21.84
2019-05-03T04:59:15.847Z,21.8
2019-05-03T05:00:28.317Z,21.84
2019-05-03T05:01:40.270Z,21.71
2019-05-03T05:02:51.114Z,21.84
2019-05-03T05:04:02.067Z,21.74
2019-05-03T05:05:15.176Z,21.82
2019-05-03T05:06:25.729Z,21.83
2019-05-03T05:07:37.543Z,21.8
2019-05-03T05:08:48.263Z,21.82
2019-05-03T05:10:00.912Z,21.8
2019-05-03T05:11:18.092Z,21.79
2019-05-03T05:12:29.919Z,21.8
2019-05-03T05:13:40.826Z,21.84
2019-05-03T05:14:56.081Z,21.86
2019-05-03T05:16:08.228Z,21.9
2019-05-03T05:17:18.863Z,21.8
2019-05-03T05:18:31.092Z,21.77
2019-05-03T05:19:44.549Z,21.75
2019-05-03T05:20:55.357Z,21.77
2019-05-03T05:22:08.440Z,21.88
2019-05-03T05:23:19.172Z,21.86
2019-05-03T05:24:30.265Z,21.77
2019-05-03T05:25:41.951Z,21.92
2019-05-03T05:26:51.970Z,21.84
2019-05-03T05:28:04.604Z,21.74
2019-05-03T05:29:14.677Z,21.9
2019-05-03T05:30:25.173Z,21.86
2019-05-03T05:31:35.622Z,21.86
2019-05-03T05:32:45.485Z,21.9
2019-05-03T05:33:56.897Z,21.8
2019-05-03T05:35:07.638Z,21.8
2019-05-03T05:36:17.802Z,21.9
2019-05-03T05:37:29.719Z,21.69
2019-05-03T05:38:40.341Z,21.72
2019-05-03T05:39:50.164Z,21.9
2019-05-03T05:41:00.204Z,21.8
2019-05-03T05:42:10.359Z,21.77
2019-05-03T05:43:19.957Z,21.84
2019-05-03T05:44:30.515Z,21.82
2019-05-03T05:45:40.028Z,21.75
2019-05-03T05:46:50.009Z,21.8
2019-05-03T05:47:59.576Z,21.82
2019-05-03T05:49:09.876Z,21.82
2019-05-03T05:50:19.714Z,21.71
2019-05-03T05:51:30.401Z,21.72
2019-05-03T05:52:40.103Z,21.77
2019-05-03T05:53:49.840Z,21.69
2019-05-03T05:55:00.616Z,21.74
2019-05-03T05:56:11.669Z,21.67
2019-05-03T05:57:22.594Z,21.71
2019-05-03T05:58:34.622Z,21.74
2019-05-03T05:59:45.323Z,21.71
2019-05-03T06:00:57.545Z,21.74
2019-05-03T06:02:07.367Z,21.71
2019-05-03T06:03:17.405Z,21.75
2019-05-03T06:04:26.834Z,21.71
2019-05-03T06:05:37.707Z,21.75
2019-05-03T06:06:47.626Z,21.75
2019-05-03T06:07:59.327Z,21.72
2019-05-03T06:09:09.758Z,21.74
2019-05-03T06:10:21.044Z,21.82
2019-05-03T06:11:32.462Z,21.79
2019-05-03T06:12:42.185Z,21.79
2019-05-03T06:13:54.498Z,21.8
2019-05-03T06:15:04.731Z,21.8
2019-05-03T06:16:15.471Z,21.75
2019-05-03T06:17:26.928Z,21.8
2019-05-03T06:18:37.788Z,21.79
2019-05-03T06:19:47.383Z,21.82
2019-05-03T06:20:56.571Z,21.77
2019-05-03T06:22:07.493Z,21.77
2019-05-03T06:23:16.889Z,21.79
2019-05-03T06:24:27.351Z,21.83
2019-05-03T06:25:37.809Z,21.9
2019-05-03T06:26:49.121Z,21.75
2019-05-03T06:27:59.900Z,21.88
2019-05-03T06:29:27.258Z,21.79
2019-05-03T06:30:37.523Z,21.9
2019-05-03T06:31:47.086Z,21.91
2019-05-03T06:32:57.560Z,21.83
2019-05-03T06:34:09.056Z,21.84
2019-05-03T06:35:20.000Z,21.86
2019-05-03T06:36:31.705Z,21.79
2019-05-03T06:37:42.279Z,21.79
2019-05-03T06:38:54.636Z,21.82
2019-05-03T06:40:05.995Z,21.88
2019-05-03T06:41:17.294Z,21.82
2019-05-03T06:42:28.037Z,21.8
2019-05-03T06:43:44.927Z,21.8
2019-05-03T06:44:59.142Z,21.74
2019-05-03T06:46:31.727Z,21.9
2019-05-03T06:47:50.522Z,21.74
2019-05-03T06:49:10.031Z,21.83
2019-05-03T06:50:29.927Z,21.9
2019-05-03T06:51:45.489Z,21.88
2019-05-03T06:53:05.300Z,21.9
2019-05-03T06:54:32.133Z,21.9
2019-05-03T06:55:51.473Z,21.96
2019-05-03T06:57:10.438Z,21.88
2019-05-03T06:58:38.851Z,21.92
2019-05-03T06:59:49.832Z,21.92
2019-05-03T07:00:59.982Z,21.86
2019-05-03T07:02:10.234Z,21.9
2019-05-03T07:03:21.982Z,21.86
2019-05-03T07:04:32.340Z,21.9
2019-05-03T07:05:41.450Z,21.92
2019-05-03T07:06:51.541Z,21.82
2019-05-03T07:08:02.505Z,21.96
2019-05-03T07:09:14.340Z,21.84
2019-05-03T07:10:24.900Z,21.92
2019-05-03T07:11:34.822Z,21.91
2019-05-03T07:12:45.467Z,21.92
2019-05-03T07:13:57.397Z,21.92
2019-05-03T07:15:07.438Z,21.86
2019-05-03T07:16:17.423Z,21.86
2019-05-03T07:17:27.335Z,21.91
2019-05-03T07:18:37.408Z,21.88
2019-05-03T07:19:48.314Z,21.9
2019-05-03T07:21:01.807Z,21.91
2019-05-03T07:22:12.284Z,21.94
2019-05-03T07:23:24.452Z,21.91
2019-05-03T07:24:37.621Z,21.86
2019-05-03T07:25:50.881Z,21.91
2019-05-03T07:27:05.400Z,21.94
2019-05-03T07:28:17.283Z,21.91
2019-05-03T07:29:27.990Z,22
2019-05-03T07:30:39.757Z,21.91
2019-05-03T07:31:50.423Z,21.9
2019-05-03T07:33:02.199Z,21.96
2019-05-03T07:34:11.773Z,21.9
2019-05-03T07:35:24.916Z,21.9
2019-05-03T07:36:35.522Z,21.96
2019-05-03T07:37:47.468Z,21.96
2019-05-03T07:38:58.049Z,21.86
2019-05-03T07:40:09.579Z,21.91
2019-05-03T07:41:19.850Z,21.96
2019-05-03T07:42:34.667Z,21.94
2019-05-03T07:43:45.045Z,21.96
2019-05-03T07:44:55.937Z,21.84
2019-05-03T07:46:07.961Z,21.91
2019-05-03T07:47:19.727Z,21.9
2019-05-03T07:48:30.472Z,21.9
2019-05-03T07:49:40.183Z,21.86
2019-05-03T07:50:51.558Z,21.86
2019-05-03T07:52:01.821Z,22
2019-05-03T07:53:14.998Z,21.9
2019-05-03T07:54:24.865Z,21.9
2019-05-03T07:55:35.247Z,21.86
2019-05-03T07:56:46.727Z,21.83
2019-05-03T07:57:57.876Z,21.91
2019-05-03T07:59:10.943Z,21.86
2019-05-03T08:00:22.289Z,22.02
2019-05-03T08:01:32.810Z,21.88
2019-05-03T08:02:44.679Z,21.92
2019-05-03T08:03:55.125Z,22
2019-05-03T08:05:05.203Z,22.02
2019-05-03T08:06:15.043Z,22
2019-05-03T08:07:28.205Z,21.86
2019-05-03T08:08:37.983Z,21.96
2019-05-03T08:09:47.751Z,22
2019-05-03T08:10:57.478Z,21.99
2019-05-03T08:12:07.583Z,21.96
2019-05-03T08:13:19.514Z,21.91
2019-05-03T08:14:30.089Z,21.9
2019-05-03T08:15:40.697Z,21.98
2019-05-03T08:16:54.604Z,21.94
2019-05-03T08:18:04.774Z,21.91
2019-05-03T08:19:15.175Z,22
2019-05-03T08:20:29.216Z,21.84
2019-05-03T08:21:45.232Z,21.96
2019-05-03T08:22:57.095Z,22
2019-05-03T08:24:07.113Z,21.99
2019-05-03T08:25:16.836Z,21.94
2019-05-03T08:26:28.196Z,21.94
2019-05-03T08:27:40.045Z,21.98
2019-05-03T08:28:51.666Z,21.86
2019-05-03T08:30:01.921Z,21.99
2019-05-03T08:31:11.825Z,21.94
2019-05-03T08:32:21.973Z,21.99
2019-05-03T08:33:31.700Z,21.99
2019-05-03T08:34:42.734Z,21.94
2019-05-03T08:35:52.415Z,21.94
2019-05-03T08:37:02.147Z,22.02
2019-05-03T08:38:12.414Z,22.02
2019-05-03T08:39:24.984Z,21.99
2019-05-03T08:40:35.039Z,21.94
2019-05-03T08:41:46.760Z,21.82
2019-05-03T08:42:57.483Z,21.99
2019-05-03T08:44:07.411Z,21.96
2019-05-03T08:45:17.045Z,21.9
2019-05-03T08:46:27.879Z,21.83
2019-05-03T08:47:39.220Z,21.94
2019-05-03T08:48:50.508Z,21.94
2019-05-03T08:50:01.987Z,21.86
2019-05-03T08:51:14.708Z,21.96
2019-05-03T08:52:24.761Z,21.96
2019-05-03T08:53:35.767Z,21.92
2019-05-03T08:54:47.443Z,22
2019-05-03T08:55:57.766Z,22
2019-05-03T08:57:08.770Z,21.84
2019-05-03T08:58:20.185Z,21.98
2019-05-03T08:59:38.272Z,21.94
2019-05-03T09:00:49.843Z,21.94
2019-05-03T09:02:03.425Z,21.99
2019-05-03T09:03:27.270Z,21.96
2019-05-03T09:04:46.138Z,21.86
2019-05-03T09:05:58.553Z,22
2019-05-03T09:07:10.348Z,22.02
2019-05-03T09:08:22.207Z,21.94
2019-05-03T09:09:32.123Z,21.96
2019-05-03T09:10:42.065Z,21.99
2019-05-03T09:11:55.300Z,22.05
2019-05-03T09:13:08.992Z,21.99
2019-05-03T09:14:20.084Z,21.9
2019-05-03T09:15:47.040Z,21.94
2019-05-03T09:16:57.769Z,22.03
2019-05-03T09:18:09.316Z,21.9
2019-05-03T09:19:25.265Z,22.03
2019-05-03T09:20:38.110Z,22.03
2019-05-03T09:21:48.093Z,22
2019-05-03T09:22:59.470Z,21.92
2019-05-03T09:24:10.387Z,21.96
2019-05-03T09:25:20.429Z,22.02
2019-05-03T09:26:34.796Z,21.94
2019-05-03T09:27:44.626Z,21.98
2019-05-03T09:28:55.590Z,21.96
2019-05-03T09:30:07.430Z,22.05
2019-05-03T09:31:17.756Z,21.92
2019-05-03T09:32:30.339Z,21.88
2019-05-03T09:33:40.269Z,22.03
2019-05-03T09:34:50.189Z,21.96
2019-05-03T09:36:00.132Z,21.98
2019-05-03T09:37:10.631Z,21.96
2019-05-03T09:38:20.505Z,21.96
2019-05-03T09:39:30.665Z,22.02
2019-05-03T09:40:40.341Z,21.9
2019-05-03T09:41:50.753Z,22.02
2019-05-03T09:43:04.323Z,21.9
2019-05-03T09:44:15.067Z,22.02
2019-05-03T09:45:24.551Z,21.96
2019-05-03T09:46:35.394Z,21.98
2019-05-03T09:47:47.124Z,22.02
2019-05-03T09:49:14.273Z,22.02
2019-05-03T09:50:26.955Z,21.98
2019-05-03T09:51:37.457Z,22.02
2019-05-03T09:52:49.620Z,22
2019-05-03T09:54:00.459Z,21.99
2019-05-03T09:55:10.609Z,21.96
2019-05-03T09:56:21.911Z,21.94
2019-05-03T09:57:34.524Z,21.91
2019-05-03T09:58:45.957Z,21.98
2019-05-03T10:00:04.872Z,22.02
2019-05-03T10:01:15.015Z,21.98
2019-05-03T10:02:27.066Z,22
2019-05-03T10:03:38.936Z,21.96
2019-05-03T10:04:50.048Z,21.96
2019-05-03T10:06:00.189Z,21.98
2019-05-03T10:07:09.687Z,21.99
2019-05-03T10:08:20.717Z,21.9
2019-05-03T10:09:35.155Z,22.03
2019-05-03T10:10:45.252Z,21.96
2019-05-03T10:11:57.501Z,21.92
2019-05-03T10:13:27.005Z,22
2019-05-03T10:14:36.742Z,22.02
2019-05-03T10:15:47.541Z,22
2019-05-03T10:16:59.468Z,21.91
2019-05-03T10:18:15.681Z,22.02
2019-05-03T10:19:40.369Z,22.03
2019-05-03T10:20:52.255Z,21.99
2019-05-03T10:22:04.547Z,21.94
2019-05-03T10:23:17.047Z,22.05
2019-05-03T10:24:27.006Z,21.96
2019-05-03T10:25:40.267Z,21.98
2019-05-03T10:26:50.598Z,21.94
2019-05-03T10:28:00.030Z,21.94
2019-05-03T10:29:10.787Z,21.94
2019-05-03T10:30:22.074Z,21.99
2019-05-03T10:31:32.108Z,21.99
2019-05-03T10:32:44.746Z,21.96
2019-05-03T10:33:54.358Z,21.99
2019-05-03T10:35:05.483Z,21.96
2019-05-03T10:36:17.508Z,21.98
2019-05-03T10:37:29.937Z,21.96
2019-05-03T10:38:41.849Z,21.98
2019-05-03T10:39:53.194Z,21.96
2019-05-03T10:41:02.859Z,21.98
2019-05-03T10:42:13.029Z,22
2019-05-03T10:43:24.565Z,21.99
2019-05-03T10:44:35.682Z,21.99
2019-05-03T10:45:47.459Z,21.99
2019-05-03T10:46:58.359Z,21.96
2019-05-03T10:48:10.167Z,21.98
2019-05-03T10:49:20.549Z,22.02
2019-05-03T10:50:31.885Z,22.03
2019-05-03T10:51:41.532Z,21.99
2019-05-03T10:52:52.598Z,21.94
2019-05-03T10:54:02.473Z,22.05
2019-05-03T10:55:12.470Z,21.99
2019-05-03T10:56:29.327Z,21.96
2019-05-03T10:57:40.800Z,22.02
2019-05-03T10:58:54.769Z,21.96
2019-05-03T11:00:05.034Z,22.03
2019-05-03T11:01:45.195Z,21.96
2019-05-03T11:02:57.455Z,21.99
2019-05-03T11:04:07.795Z,22
2019-05-03T11:05:18.901Z,21.98
2019-05-03T11:06:30.006Z,21.99
2019-05-03T11:07:42.403Z,22.07
2019-05-03T11:08:54.524Z,21.98
2019-05-03T11:10:05.255Z,21.98
2019-05-03T11:11:15.134Z,21.98
2019-05-03T11:12:25.490Z,21.96
2019-05-03T11:13:37.346Z,21.98
2019-05-03T11:14:47.800Z,21.94
2019-05-03T11:15:57.104Z,21.96
2019-05-03T11:17:08.111Z,21.98
2019-05-03T11:18:20.107Z,21.99
2019-05-03T11:19:30.558Z,21.98
2019-05-03T11:20:41.918Z,21.98
2019-05-03T11:21:52.186Z,21.99
2019-05-03T11:23:01.930Z,21.94
2019-05-03T11:24:14.701Z,21.96
2019-05-03T11:25:24.909Z,22.02
2019-05-03T11:26:35.096Z,21.98
2019-05-03T11:27:47.163Z,22
2019-05-03T11:29:04.905Z,21.98
2019-05-03T11:30:15.733Z,22
2019-05-03T11:31:27.288Z,22
2019-05-03T11:32:37.760Z,21.94
2019-05-03T11:33:48.110Z,22.02
2019-05-03T11:34:57.883Z,22
2019-05-03T11:36:08.920Z,21.94
2019-05-03T11:37:19.954Z,22
2019-05-03T11:38:30.328Z,22.02
2019-05-03T11:39:42.285Z,21.96
2019-05-03T11:40:52.306Z,21.99
2019-05-03T11:42:04.650Z,22.06
2019-05-03T11:43:15.234Z,22
2019-05-03T11:44:26.892Z,22
2019-05-03T11:45:37.835Z,22
2019-05-03T11:46:49.276Z,21.98
2019-05-03T11:48:00.138Z,21.94
2019-05-03T11:49:10.447Z,22
2019-05-03T11:50:25.298Z,21.94
2019-05-03T11:51:35.321Z,21.98
2019-05-03T11:52:47.071Z,21.98
2019-05-03T11:53:57.060Z,21.94
2019-05-03T11:55:15.884Z,21.94
2019-05-03T11:56:27.263Z,22.09
2019-05-03T11:57:38.003Z,22
2019-05-03T11:58:50.378Z,21.99
2019-05-03T12:00:02.315Z,21.99
2019-05-03T12:01:22.673Z,21.99
2019-05-03T12:02:33.810Z,21.94
2019-05-03T12:03:45.027Z,22.03
2019-05-03T12:04:55.197Z,21.96
2019-05-03T12:06:07.352Z,21.92
2019-05-03T12:07:19.277Z,22.02
2019-05-03T12:08:47.098Z,21.98
2019-05-03T12:09:57.127Z,21.98
2019-05-03T12:11:08.278Z,21.98
2019-05-03T12:12:19.764Z,21.98
2019-05-03T12:13:29.507Z,22.02
2019-05-03T12:14:39.204Z,21.94
2019-05-03T12:15:50.334Z,21.99
2019-05-03T12:17:31.072Z,21.91
2019-05-03T12:18:59.012Z,22
2019-05-03T12:20:36.738Z,21.99
2019-05-03T12:21:53.091Z,22
2019-05-03T12:23:09.246Z,22
2019-05-03T12:24:26.146Z,21.98
2019-05-03T12:25:44.972Z,22.06
2019-05-03T12:26:58.685Z,22.07
2019-05-03T12:28:10.476Z,22.07
2019-05-03T12:29:24.462Z,22.14
2019-05-03T12:30:35.452Z,22.02
2019-05-03T12:31:47.959Z,22.12
2019-05-03T12:32:59.754Z,22.09
2019-05-03T12:34:11.404Z,22.03
2019-05-03T12:35:24.637Z,22.03
2019-05-03T12:36:38.433Z,21.99
2019-05-03T12:37:48.642Z,22.09
2019-05-03T12:39:00.723Z,22.09
2019-05-03T12:40:30.057Z,22.03
2019-05-03T12:41:40.340Z,22.09
2019-05-03T12:42:55.094Z,22.1
2019-05-03T12:44:04.676Z,22.05
2019-05-03T12:45:15.199Z,22.09
2019-05-03T12:46:26.168Z,22.09
2019-05-03T12:47:37.190Z,21.98
2019-05-03T12:48:47.246Z,22.07
2019-05-03T12:49:58.324Z,22.1
2019-05-03T12:51:12.984Z,22.06
2019-05-03T12:52:28.235Z,22.07
2019-05-03T12:53:41.428Z,22.06
2019-05-03T12:54:51.119Z,21.99
2019-05-03T12:56:09.680Z,22.09
2019-05-03T12:57:29.440Z,22.05
2019-05-03T12:58:39.558Z,22.09
2019-05-03T12:59:50.544Z,22.09
2019-05-03T13:01:00.657Z,22.05
2019-05-03T13:02:12.770Z,22.06
2019-05-03T13:03:24.602Z,22.06
2019-05-03T13:04:33.909Z,22.14
2019-05-03T13:05:44.924Z,22.06
2019-05-03T13:06:54.914Z,22.12
2019-05-03T13:08:05.537Z,22.03
2019-05-03T13:09:15.956Z,22.09
2019-05-03T13:10:29.030Z,22.06
2019-05-03T13:11:58.726Z,22.12
2019-05-03T13:13:10.259Z,22.12
2019-05-03T13:14:21.964Z,22.07
2019-05-03T13:15:32.314Z,22.05
2019-05-03T13:16:44.390Z,22.05
2019-05-03T13:17:55.317Z,22.07
2019-05-03T13:19:05.608Z,22.03
2019-05-03T13:20:15.170Z,22.09
2019-05-03T13:21:25.357Z,22.06
2019-05-03T13:22:35.005Z,22.09
2019-05-03T13:23:45.285Z,22.18
2019-05-03T13:24:56.904Z,22.15
2019-05-03T13:26:08.248Z,22.05
2019-05-03T13:27:19.640Z,21.99
2019-05-03T13:28:30.673Z,22.05
2019-05-03T13:29:40.363Z,22.1
2019-05-03T13:30:50.120Z,22.07
2019-05-03T13:32:08.103Z,22.17
2019-05-03T13:33:19.623Z,22.05
2019-05-03T13:34:29.376Z,22.05
2019-05-03T13:35:40.452Z,22.02
2019-05-03T13:36:51.944Z,22.1
2019-05-03T13:38:02.096Z,22.12
2019-05-03T13:39:18.539Z,22.06
2019-05-03T13:40:31.578Z,22.05
2019-05-03T13:41:45.338Z,22.05
2019-05-03T13:43:08.275Z,22.15
2019-05-03T13:44:20.366Z,22.02
2019-05-03T13:45:29.599Z,22.07
2019-05-03T13:46:40.560Z,22.1
2019-05-03T13:47:51.539Z,22.06
2019-05-03T13:49:02.685Z,22.09
2019-05-03T13:50:15.095Z,22.12
2019-05-03T13:51:25.287Z,22.09
2019-05-03T13:52:37.077Z,22.09
2019-05-03T13:53:46.509Z,22.06
2019-05-03T13:54:57.022Z,22.07
2019-05-03T13:56:07.324Z,22.06
2019-05-03T13:57:17.693Z,22.03
2019-05-03T13:58:28.891Z,22.12
2019-05-03T13:59:40.747Z,22.09
2019-05-03T14:00:54.877Z,22.03
2019-05-03T14:02:21.703Z,22.07
2019-05-03T14:03:30.919Z,22.09
2019-05-03T14:04:55.680Z,22.12
2019-05-03T14:06:10.475Z,22.14
2019-05-03T14:07:19.961Z,22.07
2019-05-03T14:08:30.223Z,22.06
2019-05-03T14:09:39.593Z,22.1
2019-05-03T14:10:50.614Z,22.09
2019-05-03T14:12:00.665Z,22.09
2019-05-03T14:13:13.663Z,22.02
2019-05-03T14:14:22.901Z,22.09
2019-05-03T14:15:34.756Z,22.07
2019-05-03T14:16:45.135Z,21.99
2019-05-03T14:17:54.787Z,22.02
2019-05-03T14:19:05.241Z,22.02
2019-05-03T14:20:17.139Z,22.03
2019-05-03T14:21:26.998Z,22.14
2019-05-03T14:22:37.962Z,21.96
2019-05-03T14:23:49.630Z,22.03
2019-05-03T14:24:58.575Z,22.1
2019-05-03T14:26:09.619Z,22.07
2019-05-03T14:27:21.701Z,22.06
2019-05-03T14:28:32.304Z,22.03
2019-05-03T14:29:41.496Z,21.94
2019-05-03T14:30:54.708Z,22.07
2019-05-03T14:32:05.258Z,22.07
2019-05-03T14:33:15.382Z,22.03
2019-05-03T14:34:25.656Z,21.96
2019-05-03T14:35:37.134Z,22.02
2019-05-03T14:36:47.448Z,22.02
2019-05-03T14:37:59.828Z,22.05
2019-05-03T14:39:14.997Z,22
2019-05-03T14:40:25.059Z,21.98
2019-05-03T14:41:34.511Z,22.05
2019-05-03T14:42:44.605Z,22
2019-05-03T14:43:55.614Z,22.02
2019-05-03T14:45:06.975Z,21.99
2019-05-03T14:46:32.491Z,21.96
2019-05-03T14:47:43.376Z,22.02
2019-05-03T14:48:52.344Z,21.96
2019-05-03T14:50:02.435Z,22
2019-05-03T14:51:14.598Z,22.03
2019-05-03T14:52:25.198Z,22.02
2019-05-03T14:53:37.308Z,21.96
2019-05-03T14:54:47.537Z,21.96
2019-05-03T14:55:56.963Z,21.99
2019-05-03T14:57:06.396Z,21.94
2019-05-03T14:58:17.734Z,22.02
2019-05-03T14:59:28.588Z,21.98
2019-05-03T15:00:39.909Z,21.98
2019-05-03T15:01:50.186Z,21.98
2019-05-03T15:03:04.682Z,21.98
2019-05-03T15:04:15.113Z,21.96
2019-05-03T15:05:27.456Z,21.99
2019-05-03T15:06:37.912Z,21.98
2019-05-03T15:07:48.380Z,21.96
2019-05-03T15:09:00.761Z,21.99
2019-05-03T15:10:14.896Z,21.99
2019-05-03T15:11:24.491Z,21.96
2019-05-03T15:12:35.369Z,22
2019-05-03T15:13:45.526Z,21.98
2019-05-03T15:14:56.784Z,22
2019-05-03T15:16:07.508Z,21.96
2019-05-03T15:17:19.126Z,21.94
2019-05-03T15:18:30.527Z,22.05
2019-05-03T15:19:42.303Z,22.05
2019-05-03T15:20:54.757Z,21.96
2019-05-03T15:22:05.589Z,21.98
2019-05-03T15:23:17.113Z,21.98
2019-05-03T15:24:27.418Z,22.02
2019-05-03T15:25:39.374Z,21.94
2019-05-03T15:26:50.038Z,22.03
2019-05-03T15:28:00.645Z,22.02
2019-05-03T15:29:12.444Z,21.9
2019-05-03T15:30:23.225Z,22.03
2019-05-03T15:31:32.532Z,21.94
2019-05-03T15:32:54.451Z,22
2019-05-03T15:34:10.034Z,21.9
2019-05-03T15:35:20.556Z,22.03
2019-05-03T15:36:31.191Z,21.99
2019-05-03T15:37:40.697Z,21.99
2019-05-03T15:38:52.369Z,21.99